Time;durP1;ratioP1;P1;durP2;ratioP2;P2;SDS_P1;SDS_P2;PMS_P1;PMS_P2;Temp;Humidity;BMP_temperature;BMP_pressure;BME280_temperature;BME280_humidity;BME280_pressure;Samples;Min_cycle;Max_cycle;Signal;HPM_P1;HPM_P2
2022/09/06 00:00:54;;;;;;;;;;;19.20;98.70;;;;;;4949983;28;19938;-77
2022/09/06 00:03:21;;;;;;;;;;;19.20;98.70;;;;;;4929603;28;20041;-76
2022/09/06 00:05:48;;;;;;;;;;;19.10;98.70;;;;;;4953292;28;20664;-76
2022/09/06 00:08:15;;;;;;;;;;;19.10;98.70;;;;;;4931128;28;19994;-77
2022/09/06 00:10:42;;;;;;;;;;;19.10;98.70;;;;;;4954433;28;19934;-77
2022/09/06 00:13:10;;;;;;;;;;;19.10;98.70;;;;;;4951487;28;20437;-76
2022/09/06 00:15:37;;;;;;;;;;;19.00;98.60;;;;;;4945247;28;20386;-76
2022/09/06 00:18:06;;;;;;;;;;;19.00;98.60;;;;;;4948145;28;20122;-76
2022/09/06 00:20:33;;;;;;;;;;;19.00;98.70;;;;;;4951138;28;19986;-77
2022/09/06 00:23:01;;;;;;;;;;;19.00;98.70;;;;;;4948290;28;20393;-75
2022/09/06 00:25:31;;;;;;;;;;;19.00;98.70;;;;;;4949602;28;20303;-75
2022/09/06 00:27:59;;;;;;;;;;;19.00;98.70;;;;;;4951150;28;20405;-76
2022/09/06 00:30:27;;;;;;;;;;;19.00;98.70;;;;;;4948432;28;19938;-74
2022/09/06 00:32:54;;;;;;;;;;;18.90;98.70;;;;;;4950215;28;19934;-72
2022/09/06 00:35:24;;;;;;;;;;;18.90;98.70;;;;;;4952443;28;19973;-73
2022/09/06 00:37:51;;;;;;;;;;;18.90;98.70;;;;;;4947961;28;19934;-74
2022/09/06 00:40:18;;;;;;;;;;;18.90;98.70;;;;;;4947464;28;20353;-73
2022/09/06 00:42:46;;;;;;;;;;;18.80;98.70;;;;;;4949401;28;19926;-74
2022/09/06 00:45:13;;;;;;;;;;;18.80;98.70;;;;;;4949294;28;19938;-74
2022/09/06 00:47:41;;;;;;;;;;;18.80;98.70;;;;;;4947991;28;20388;-75
2022/09/06 00:50:09;;;;;;;;;;;18.80;98.70;;;;;;4933564;28;19949;-76
2022/09/06 00:52:38;;;;;;;;;;;18.80;98.70;;;;;;4939583;28;19927;-76
2022/09/06 00:55:05;;;;;;;;;;;18.80;98.70;;;;;;4945372;28;19934;-75
2022/09/06 00:57:32;;;;;;;;;;;18.70;98.60;;;;;;4948192;28;19957;-76
2022/09/06 00:59:59;;;;;;;;;;;18.70;98.60;;;;;;4934770;28;20405;-76
2022/09/06 01:02:26;;;;;;;;;;;18.70;98.70;;;;;;4949975;28;20419;-76
2022/09/06 01:04:53;;;;;;;;;;;18.70;98.70;;;;;;4949423;28;20025;-76
2022/09/06 01:07:25;;;;;;;;;;;18.70;98.60;;;;;;4932694;28;19957;-76
2022/09/06 01:10:02;;;;;;;;;;;18.70;98.60;;;;;;4951383;28;19981;-76
2022/09/06 01:12:34;;;;;;;;;;;18.60;98.60;;;;;;4950615;28;19941;-76
2022/09/06 01:15:06;;;;;;;;;;;18.60;98.60;;;;;;4946996;28;19966;-76
2022/09/06 01:17:37;;;;;;;;;;;18.60;98.90;;;;;;4945316;28;20404;-76
2022/09/06 01:20:22;;;;;;;;;;;18.60;98.60;;;;;;4946799;28;19934;-77
2022/09/06 01:22:59;;;;;;;;;;;18.60;98.60;;;;;;4933777;28;19930;-76
2022/09/06 01:25:34;;;;;;;;;;;18.60;98.60;;;;;;4945490;28;20139;-77
2022/09/06 01:28:25;;;;;;;;;;;18.50;98.60;;;;;;4932452;28;20028;-76
2022/09/06 01:30:57;;;;;;;;;;;18.50;98.50;;;;;;4948306;28;19926;-75
2022/09/06 01:33:28;;;;;;;;;;;18.50;98.50;;;;;;4948619;28;19927;-76
2022/09/06 01:35:57;;;;;;;;;;;18.50;98.50;;;;;;4948268;28;20017;-75
2022/09/06 01:38:24;;;;;;;;;;;18.50;98.50;;;;;;4936523;28;20413;-76
2022/09/06 01:40:51;;;;;;;;;;;18.50;98.60;;;;;;4955621;28;19988;-76
2022/09/06 01:43:21;;;;;;;;;;;18.50;98.60;;;;;;4949143;28;20407;-77
2022/09/06 01:45:55;;;;;;;;;;;18.40;98.80;;;;;;4951761;28;19953;-75
2022/09/06 01:48:24;;;;;;;;;;;18.40;98.50;;;;;;4950488;28;20020;-77
2022/09/06 01:50:58;;;;;;;;;;;18.40;98.50;;;;;;4939964;28;19932;-75
2022/09/06 01:53:33;;;;;;;;;;;18.30;98.40;;;;;;4955988;28;19930;-76
2022/09/06 01:56:06;;;;;;;;;;;18.30;98.40;;;;;;4949398;28;20036;-76
2022/09/06 01:58:41;;;;;;;;;;;18.30;98.50;;;;;;4931592;28;20093;-76
2022/09/06 02:01:14;;;;;;;;;;;18.30;98.40;;;;;;4948214;28;19938;-75
2022/09/06 02:03:47;;;;;;;;;;;18.30;98.50;;;;;;4950267;28;19933;-77
2022/09/06 02:06:17;;;;;;;;;;;18.30;98.50;;;;;;4947933;28;20009;-76
2022/09/06 02:08:46;;;;;;;;;;;18.20;98.50;;;;;;4951511;28;19961;-78
2022/09/06 02:11:14;;;;;;;;;;;18.20;98.50;;;;;;4949850;28;19937;-77
2022/09/06 02:13:44;;;;;;;;;;;18.20;98.40;;;;;;4940051;28;20336;-76
2022/09/06 02:16:14;;;;;;;;;;;18.20;98.50;;;;;;4953031;28;20341;-76
2022/09/06 02:18:42;;;;;;;;;;;18.10;98.40;;;;;;4947027;28;20026;-77
2022/09/06 02:21:11;;;;;;;;;;;18.10;98.40;;;;;;4953989;28;20400;-75
2022/09/06 02:23:39;;;;;;;;;;;18.20;98.50;;;;;;4957329;28;19930;-77
2022/09/06 02:26:08;;;;;;;;;;;18.10;98.40;;;;;;4930120;28;19934;-76
2022/09/06 02:28:35;;;;;;;;;;;18.10;98.40;;;;;;4952847;28;19935;-76
2022/09/06 02:31:03;;;;;;;;;;;18.10;98.40;;;;;;4949295;28;20029;-77
2022/09/06 02:33:33;;;;;;;;;;;18.10;98.40;;;;;;4953892;28;20309;-75
2022/09/06 02:36:03;;;;;;;;;;;18.00;98.40;;;;;;4955217;28;20484;-76
2022/09/06 02:38:32;;;;;;;;;;;18.00;98.30;;;;;;4948092;28;19933;-76
2022/09/06 02:41:00;;;;;;;;;;;18.00;98.40;;;;;;4946643;28;19934;-75
2022/09/06 02:43:27;;;;;;;;;;;18.00;98.40;;;;;;4950865;28;20022;-76
2022/09/06 02:45:53;;;;;;;;;;;18.00;98.40;;;;;;4938279;28;20053;-76
2022/09/06 02:48:20;;;;;;;;;;;18.00;98.40;;;;;;4949239;28;19930;-76
2022/09/06 02:50:49;;;;;;;;;;;18.00;98.40;;;;;;4951015;28;19931;-76
2022/09/06 02:53:16;;;;;;;;;;;17.90;98.40;;;;;;4952962;28;20029;-77
2022/09/06 02:55:42;;;;;;;;;;;17.90;98.40;;;;;;4938856;28;20051;-76
2022/09/06 02:58:11;;;;;;;;;;;17.90;98.40;;;;;;4929869;28;19934;-75
2022/09/06 03:00:38;;;;;;;;;;;17.90;98.40;;;;;;4952823;28;19934;-76
2022/09/06 03:03:05;;;;;;;;;;;17.90;98.40;;;;;;4955492;28;19944;-77
2022/09/06 03:05:32;;;;;;;;;;;17.90;98.40;;;;;;4936729;28;19926;-75
2022/09/06 03:08:00;;;;;;;;;;;17.80;98.40;;;;;;4951485;28;20056;-76
2022/09/06 03:10:27;;;;;;;;;;;17.80;98.40;;;;;;4949740;28;19930;-76
2022/09/06 03:12:54;;;;;;;;;;;17.80;98.50;;;;;;4953152;28;19930;-75
2022/09/06 03:15:21;;;;;;;;;;;17.80;98.50;;;;;;4945363;28;20453;-75
2022/09/06 03:17:47;;;;;;;;;;;17.80;98.40;;;;;;4946682;28;20025;-77
2022/09/06 03:20:14;;;;;;;;;;;17.80;98.50;;;;;;4945937;28;20375;-75
2022/09/06 03:22:41;;;;;;;;;;;17.80;98.50;;;;;;4949600;28;19969;-77
2022/09/06 03:25:10;;;;;;;;;;;17.70;98.40;;;;;;4948954;28;19930;-75
2022/09/06 03:27:37;;;;;;;;;;;17.70;98.40;;;;;;4947672;28;21558;-75
2022/09/06 03:30:04;;;;;;;;;;;17.70;98.40;;;;;;4949793;28;19973;-76
2022/09/06 03:32:31;;;;;;;;;;;17.70;98.40;;;;;;4948331;28;20409;-76
2022/09/06 03:34:58;;;;;;;;;;;17.70;98.40;;;;;;4948117;28;20021;-77
2022/09/06 03:37:25;;;;;;;;;;;17.70;98.40;;;;;;4930073;28;21853;-77
2022/09/06 03:39:52;;;;;;;;;;;17.70;98.40;;;;;;4944933;28;19926;-77
2022/09/06 03:42:25;;;;;;;;;;;17.60;98.40;;;;;;4943004;28;20341;-77
2022/09/06 03:44:52;;;;;;;;;;;17.60;98.40;;;;;;4950128;28;19970;-77
2022/09/06 03:47:19;;;;;;;;;;;17.60;98.40;;;;;;4953381;28;20360;-75
2022/09/06 03:49:46;;;;;;;;;;;17.60;98.40;;;;;;4938770;28;19937;-76
2022/09/06 03:52:12;;;;;;;;;;;17.60;98.40;;;;;;4935449;28;20756;-76
2022/09/06 03:54:39;;;;;;;;;;;17.60;98.40;;;;;;4955427;28;20097;-75
2022/09/06 03:57:06;;;;;;;;;;;17.60;98.50;;;;;;4938808;28;19941;-78
2022/09/06 03:59:35;;;;;;;;;;;17.60;98.50;;;;;;4947883;28;19934;-75
2022/09/06 04:02:01;;;;;;;;;;;17.50;98.50;;;;;;4951332;28;19930;-75
2022/09/06 04:04:28;;;;;;;;;;;17.50;98.50;;;;;;4951187;28;19997;-77
2022/09/06 04:06:55;;;;;;;;;;;17.50;98.30;;;;;;4952255;28;19926;-75
2022/09/06 04:09:22;;;;;;;;;;;17.40;98.60;;;;;;4951965;28;19933;-76
2022/09/06 04:11:49;;;;;;;;;;;17.50;98.70;;;;;;4957205;28;19933;-78
2022/09/06 04:14:16;;;;;;;;;;;17.50;98.70;;;;;;4948954;28;19930;-75
2022/09/06 04:16:44;;;;;;;;;;;17.40;98.60;;;;;;4948143;28;19930;-76
2022/09/06 04:19:11;;;;;;;;;;;17.50;98.70;;;;;;4938930;28;19934;-75
2022/09/06 04:21:38;;;;;;;;;;;17.40;98.70;;;;;;4951156;28;20552;-76
2022/09/06 04:24:05;;;;;;;;;;;17.40;98.90;;;;;;4948602;28;19981;-76
2022/09/06 04:26:32;;;;;;;;;;;17.40;98.60;;;;;;4950010;28;19935;-75
2022/09/06 04:28:59;;;;;;;;;;;17.40;98.70;;;;;;4949383;28;20016;-75
2022/09/06 04:31:26;;;;;;;;;;;17.40;98.60;;;;;;4948916;28;19997;-76
2022/09/06 04:33:54;;;;;;;;;;;17.40;98.60;;;;;;4932633;28;20471;-75
2022/09/06 04:36:21;;;;;;;;;;;17.40;98.60;;;;;;4950364;28;19969;-75
2022/09/06 04:38:48;;;;;;;;;;;17.30;98.60;;;;;;4953606;28;20393;-74
2022/09/06 04:41:16;;;;;;;;;;;17.40;98.70;;;;;;4950515;28;19965;-77
2022/09/06 04:43:42;;;;;;;;;;;17.30;98.70;;;;;;4949772;28;20494;-75
2022/09/06 04:46:14;;;;;;;;;;;17.30;98.70;;;;;;4945138;28;19934;-76
2022/09/06 04:48:40;;;;;;;;;;;17.30;98.80;;;;;;4934122;28;19926;-75
2022/09/06 04:51:09;;;;;;;;;;;17.30;98.80;;;;;;4945950;28;19926;-75
2022/09/06 04:53:36;;;;;;;;;;;17.30;98.80;;;;;;4938201;28;20635;-76
2022/09/06 04:56:03;;;;;;;;;;;17.30;99.00;;;;;;4952937;28;21054;-76
2022/09/06 04:58:29;;;;;;;;;;;17.30;99.10;;;;;;4949769;28;19926;-77
2022/09/06 05:00:56;;;;;;;;;;;17.30;99.10;;;;;;4950390;28;19934;-76
2022/09/06 05:03:23;;;;;;;;;;;17.30;99.20;;;;;;4998438;23;19934;-75
2022/09/06 05:05:50;;;;;;;;;;;17.30;99.20;;;;;;4955671;28;19926;-75
2022/09/06 05:08:19;;;;;;;;;;;17.20;99.20;;;;;;4948191;28;19926;-76
2022/09/06 05:10:46;;;;;;;;;;;17.20;99.20;;;;;;4940604;28;20345;-76
2022/09/06 05:13:12;;;;;;;;;;;17.20;99.20;;;;;;4958638;28;20011;-76
2022/09/06 05:15:39;;;;;;;;;;;17.20;99.20;;;;;;4960772;28;19927;-75
2022/09/06 05:18:06;;;;;;;;;;;17.20;99.20;;;;;;4957335;28;19989;-77
2022/09/06 05:20:33;;;;;;;;;;;17.20;99.40;;;;;;4957915;28;19935;-74
2022/09/06 05:23:00;;;;;;;;;;;17.20;99.20;;;;;;4941120;28;19927;-77
2022/09/06 05:25:29;;;;;;;;;;;17.20;99.20;;;;;;4947792;28;19933;-76
2022/09/06 05:27:56;;;;;;;;;;;17.20;99.30;;;;;;4958560;28;20363;-75
2022/09/06 05:30:23;;;;;;;;;;;17.20;99.30;;;;;;4959096;28;19937;-75
2022/09/06 05:32:50;;;;;;;;;;;17.20;99.30;;;;;;4955920;28;19934;-74
2022/09/06 05:35:17;;;;;;;;;;;17.10;99.30;;;;;;4956901;28;21562;-73
2022/09/06 05:37:44;;;;;;;;;;;17.10;99.30;;;;;;4960503;28;19930;-74
2022/09/06 05:40:14;;;;;;;;;;;17.20;99.30;;;;;;4957769;28;20440;-74
2022/09/06 05:42:45;;;;;;;;;;;17.10;99.30;;;;;;4943395;28;20396;-74
2022/09/06 05:45:12;;;;;;;;;;;17.10;99.20;;;;;;4956069;28;19934;-74
2022/09/06 05:47:39;;;;;;;;;;;17.10;99.30;;;;;;4957505;28;20304;-73
2022/09/06 05:50:06;;;;;;;;;;;17.10;99.50;;;;;;4952933;28;20434;-74
2022/09/06 05:52:34;;;;;;;;;;;17.10;99.20;;;;;;4959408;28;19958;-74
2022/09/06 05:55:01;;;;;;;;;;;17.10;99.30;;;;;;4958366;28;19934;-74
2022/09/06 05:57:28;;;;;;;;;;;17.10;99.30;;;;;;4941093;28;20138;-74
2022/09/06 05:59:56;;;;;;;;;;;17.00;99.20;;;;;;4958485;28;19934;-73
2022/09/06 06:02:23;;;;;;;;;;;17.00;99.20;;;;;;4959756;28;19934;-74
2022/09/06 06:04:50;;;;;;;;;;;17.10;99.30;;;;;;4958851;28;19973;-74
2022/09/06 06:07:18;;;;;;;;;;;17.10;99.30;;;;;;4959661;28;19993;-73
2022/09/06 06:09:44;;;;;;;;;;;17.10;99.40;;;;;;4959540;28;19930;-75
2022/09/06 06:12:11;;;;;;;;;;;17.00;99.40;;;;;;4961414;28;19997;-74
2022/09/06 06:14:38;;;;;;;;;;;17.10;99.50;;;;;;4956157;28;19933;-74
2022/09/06 06:17:06;;;;;;;;;;;17.00;99.30;;;;;;4957726;28;19930;-75
2022/09/06 06:19:33;;;;;;;;;;;17.00;99.40;;;;;;4939642;28;19930;-74
2022/09/06 06:22:00;;;;;;;;;;;17.10;99.60;;;;;;4939472;28;19946;-74
2022/09/06 06:24:27;;;;;;;;;;;17.00;99.50;;;;;;4927010;28;19934;-74
2022/09/06 06:26:54;;;;;;;;;;;17.00;99.50;;;;;;4951093;28;19962;-74
2022/09/06 06:29:21;;;;;;;;;;;17.00;99.50;;;;;;4953932;28;20032;-74
2022/09/06 06:31:48;;;;;;;;;;;17.00;99.50;;;;;;4941119;28;19957;-74
2022/09/06 06:34:20;;;;;;;;;;;17.00;99.60;;;;;;4926710;28;20021;-73
2022/09/06 06:36:47;;;;;;;;;;;17.10;99.70;;;;;;4954890;28;19934;-74
2022/09/06 06:39:14;;;;;;;;;;;17.00;99.70;;;;;;4933823;28;19930;-74
2022/09/06 06:41:41;;;;;;;;;;;17.00;99.70;;;;;;4951514;28;19926;-74
2022/09/06 06:44:26;;;;;;;;;;;17.00;99.80;;;;;;4936030;28;20430;-74
2022/09/06 06:46:56;;;;;;;;;;;17.00;99.70;;;;;;4941283;28;19934;-75
2022/09/06 06:49:25;;;;;;;;;;;17.00;99.80;;;;;;4936675;28;19942;-74
2022/09/06 06:51:52;;;;;;;;;;;17.00;99.90;;;;;;4952268;28;19966;-75
2022/09/06 06:54:19;;;;;;;;;;;17.00;99.80;;;;;;4934058;28;20361;-74
2022/09/06 06:56:45;;;;;;;;;;;17.10;99.80;;;;;;4958991;28;19935;-74
2022/09/06 06:59:12;;;;;;;;;;;17.00;99.90;;;;;;4935456;28;19941;-75
2022/09/06 07:01:39;;;;;;;;;;;17.10;99.90;;;;;;4950501;28;20241;-74
2022/09/06 07:04:09;;;;;;;;;;;17.00;99.90;;;;;;4953665;28;20415;-74
2022/09/06 07:06:51;;;;;;;;;;;17.10;99.90;;;;;;4951143;28;19926;-75
2022/09/06 07:09:18;;;;;;;;;;;17.00;99.80;;;;;;4949873;28;19932;-74
2022/09/06 07:11:46;;;;;;;;;;;17.10;99.80;;;;;;4941480;28;19930;-75
2022/09/06 07:14:14;;;;;;;;;;;17.00;99.70;;;;;;4955755;28;20235;-74
2022/09/06 07:16:40;;;;;;;;;;;17.00;99.90;;;;;;4953365;28;19926;-74
2022/09/06 07:19:07;;;;;;;;;;;17.10;99.90;;;;;;4939190;28;19937;-75
2022/09/06 07:21:34;;;;;;;;;;;17.10;99.90;;;;;;4951558;28;19926;-75
2022/09/06 07:24:06;;;;;;;;;;;17.10;99.90;;;;;;4954945;28;19926;-74
2022/09/06 07:26:34;;;;;;;;;;;17.10;99.90;;;;;;4956401;28;19927;-75
2022/09/06 07:29:03;;;;;;;;;;;17.10;99.90;;;;;;4937983;28;19927;-75
2022/09/06 07:31:31;;;;;;;;;;;17.10;99.90;;;;;;4947109;28;20282;-74
2022/09/06 07:33:58;;;;;;;;;;;17.10;99.90;;;;;;4950625;28;20024;-74
2022/09/06 07:36:25;;;;;;;;;;;17.20;99.90;;;;;;4939891;28;19937;-74
2022/09/06 07:38:52;;;;;;;;;;;17.20;99.90;;;;;;4956116;28;20620;-74
2022/09/06 07:41:21;;;;;;;;;;;17.10;99.90;;;;;;4939923;28;19957;-75
2022/09/06 07:43:52;;;;;;;;;;;17.20;99.90;;;;;;4946725;28;20056;-75
2022/09/06 07:46:18;;;;;;;;;;;17.20;99.90;;;;;;4954080;28;19930;-75
2022/09/06 07:48:46;;;;;;;;;;;17.20;99.90;;;;;;4957122;28;19931;-74
2022/09/06 07:51:15;;;;;;;;;;;17.20;99.90;;;;;;4954353;28;19936;-75
2022/09/06 07:53:43;;;;;;;;;;;17.20;99.90;;;;;;4954590;28;19930;-75
2022/09/06 07:56:10;;;;;;;;;;;17.20;99.90;;;;;;4955979;28;19926;-74
2022/09/06 07:58:39;;;;;;;;;;;17.30;99.90;;;;;;4955762;28;19929;-75
2022/09/06 08:01:20;;;;;;;;;;;17.30;99.90;;;;;;4955860;28;20001;-74
2022/09/06 08:03:47;;;;;;;;;;;17.30;99.90;;;;;;4959489;28;19941;-75
2022/09/06 08:06:17;;;;;;;;;;;17.30;99.90;;;;;;4955424;28;19935;-75
2022/09/06 08:08:44;;;;;;;;;;;17.30;99.90;;;;;;4954221;28;19934;-74
2022/09/06 08:11:11;;;;;;;;;;;17.40;99.90;;;;;;4951736;28;19945;-75
2022/09/06 08:13:39;;;;;;;;;;;17.40;99.90;;;;;;4950676;28;20082;-75
2022/09/06 08:16:07;;;;;;;;;;;17.40;99.90;;;;;;4937214;28;19926;-74
2022/09/06 08:18:34;;;;;;;;;;;17.40;99.90;;;;;;4950192;28;19937;-73
2022/09/06 08:21:07;;;;;;;;;;;17.40;99.90;;;;;;4950055;28;19926;-75
2022/09/06 08:23:35;;;;;;;;;;;17.40;99.90;;;;;;4955186;28;19988;-74
2022/09/06 08:26:01;;;;;;;;;;;17.50;99.90;;;;;;4955680;28;19972;-72
2022/09/06 08:28:28;;;;;;;;;;;17.40;99.90;;;;;;4939276;28;20028;-74
2022/09/06 08:31:04;;;;;;;;;;;17.50;99.90;;;;;;4934684;28;20024;-74
2022/09/06 08:33:31;;;;;;;;;;;17.50;99.90;;;;;;4947446;28;19980;-74
2022/09/06 08:35:58;;;;;;;;;;;17.50;99.90;;;;;;4931985;28;19933;-72
2022/09/06 08:38:25;;;;;;;;;;;17.50;99.90;;;;;;4952432;28;19926;-78
2022/09/06 08:40:52;;;;;;;;;;;17.50;99.90;;;;;;4954324;28;19945;-73
2022/09/06 08:43:19;;;;;;;;;;;17.60;99.90;;;;;;4951811;28;20015;-74
2022/09/06 08:45:48;;;;;;;;;;;17.60;99.90;;;;;;4953697;28;19936;-74
2022/09/06 08:48:16;;;;;;;;;;;17.60;99.90;;;;;;4935196;28;19973;-74
2022/09/06 08:50:47;;;;;;;;;;;17.60;99.90;;;;;;4946633;28;20373;-74
2022/09/06 08:53:15;;;;;;;;;;;17.60;99.90;;;;;;4949841;28;19930;-74
2022/09/06 08:55:44;;;;;;;;;;;17.70;99.90;;;;;;4948829;28;19926;-73
2022/09/06 08:58:19;;;;;;;;;;;17.70;99.90;;;;;;4951866;28;19965;-74
2022/09/06 09:00:48;;;;;;;;;;;17.70;99.90;;;;;;4946443;28;20514;-74
2022/09/06 09:03:17;;;;;;;;;;;17.70;99.90;;;;;;4938073;28;19930;-74
2022/09/06 09:05:47;;;;;;;;;;;17.70;99.90;;;;;;4949111;28;19934;-74
2022/09/06 09:08:20;;;;;;;;;;;17.70;99.90;;;;;;4946109;28;19930;-74
2022/09/06 09:10:49;;;;;;;;;;;17.80;99.90;;;;;;4950540;28;19934;-74
2022/09/06 09:13:20;;;;;;;;;;;18.00;99.90;;;;;;4950434;28;20604;-74
2022/09/06 09:15:47;;;;;;;;;;;18.20;99.90;;;;;;4947712;28;20227;-73
2022/09/06 09:18:17;;;;;;;;;;;18.30;99.90;;;;;;4953299;28;20077;-73
2022/09/06 09:20:45;;;;;;;;;;;18.30;99.90;;;;;;4955307;28;20027;-74
2022/09/06 09:23:12;;;;;;;;;;;18.20;99.90;;;;;;4958924;28;20001;-73
2022/09/06 09:25:39;;;;;;;;;;;18.20;99.90;;;;;;4958336;28;19966;-74
2022/09/06 09:28:10;;;;;;;;;;;18.10;99.90;;;;;;4939557;28;19933;-73
2022/09/06 09:30:46;;;;;;;;;;;18.10;99.90;;;;;;4944658;28;19978;-74
2022/09/06 09:33:20;;;;;;;;;;;18.10;99.90;;;;;;4937797;28;19987;-73
2022/09/06 09:35:49;;;;;;;;;;;18.30;99.90;;;;;;4935057;28;19961;-73
2022/09/06 09:38:20;;;;;;;;;;;18.30;99.90;;;;;;4955382;28;19937;-74
2022/09/06 09:40:49;;;;;;;;;;;18.30;99.90;;;;;;4953152;28;19941;-73
2022/09/06 09:43:18;;;;;;;;;;;18.30;99.90;;;;;;4946818;28;20384;-75
2022/09/06 09:45:45;;;;;;;;;;;18.30;99.90;;;;;;4951565;28;19997;-72
2022/09/06 09:48:17;;;;;;;;;;;18.30;99.90;;;;;;4956922;28;19930;-73
2022/09/06 09:50:44;;;;;;;;;;;18.30;99.90;;;;;;4953707;28;19940;-73
2022/09/06 09:53:13;;;;;;;;;;;18.30;99.90;;;;;;4949326;28;20017;-73
2022/09/06 09:55:41;;;;;;;;;;;18.30;99.90;;;;;;4956145;28;19985;-74
2022/09/06 09:58:15;;;;;;;;;;;18.30;99.90;;;;;;4954190;28;19927;-73
2022/09/06 10:00:42;;;;;;;;;;;18.40;99.90;;;;;;4958012;28;20460;-74
2022/09/06 10:03:13;;;;;;;;;;;18.40;99.90;;;;;;4955430;28;20088;-74
2022/09/06 10:05:40;;;;;;;;;;;18.40;99.90;;;;;;4956173;28;20033;-73
2022/09/06 10:08:10;;;;;;;;;;;18.40;99.90;;;;;;4957366;28;20321;-74
2022/09/06 10:10:41;;;;;;;;;;;18.50;99.90;;;;;;4938600;28;20496;-74
2022/09/06 10:13:21;;;;;;;;;;;18.50;99.90;;;;;;4950744;28;19926;-73
2022/09/06 10:15:48;;;;;;;;;;;18.50;99.90;;;;;;4956551;28;21876;-74
2022/09/06 10:18:16;;;;;;;;;;;18.60;99.90;;;;;;4954932;28;19926;-74
2022/09/06 10:20:45;;;;;;;;;;;18.60;99.90;;;;;;4955780;28;20449;-74
2022/09/06 10:23:14;;;;;;;;;;;18.60;99.90;;;;;;4955284;28;19976;-74
2022/09/06 10:25:44;;;;;;;;;;;18.60;99.90;;;;;;4955268;28;19930;-72
2022/09/06 10:28:26;;;;;;;;;;;18.70;99.90;;;;;;4956571;28;20075;-73
2022/09/06 10:30:59;;;;;;;;;;;18.70;99.90;;;;;;4935249;28;20021;-73
2022/09/06 10:33:30;;;;;;;;;;;18.70;99.90;;;;;;4955548;28;19981;-73
2022/09/06 10:35:57;;;;;;;;;;;18.80;99.90;;;;;;4951205;28;20005;-73
2022/09/06 10:38:31;;;;;;;;;;;18.80;99.90;;;;;;4938438;28;19941;-74
2022/09/06 10:41:13;;;;;;;;;;;18.80;99.90;;;;;;4951006;28;19937;-74
2022/09/06 10:43:42;;;;;;;;;;;18.80;99.90;;;;;;4949625;28;20325;-74
2022/09/06 10:46:11;;;;;;;;;;;18.90;99.90;;;;;;4937392;28;19933;-74
2022/09/06 10:48:39;;;;;;;;;;;18.90;99.90;;;;;;4957259;28;19930;-74
2022/09/06 10:51:10;;;;;;;;;;;19.00;99.90;;;;;;4951684;28;19926;-75
2022/09/06 10:53:46;;;;;;;;;;;19.00;99.90;;;;;;4957158;28;19973;-74
2022/09/06 10:56:16;;;;;;;;;;;19.10;99.90;;;;;;4965210;28;20093;-75
2022/09/06 10:58:48;;;;;;;;;;;19.10;99.90;;;;;;4960822;28;19926;-75
2022/09/06 11:01:22;;;;;;;;;;;19.10;99.90;;;;;;4954449;28;20021;-73
2022/09/06 11:09:26;;;;;;;;;;;19.20;99.90;;;;;;4915113;29;19934;-73
2022/09/06 11:11:59;;;;;;;;;;;19.20;99.90;;;;;;4914362;29;19967;-77
2022/09/06 11:14:27;;;;;;;;;;;19.40;99.90;;;;;;4934900;28;20011;-74
2022/09/06 11:16:58;;;;;;;;;;;19.40;99.90;;;;;;4919310;29;19931;-75
2022/09/06 11:19:26;;;;;;;;;;;19.40;99.90;;;;;;4916495;29;20554;-74
2022/09/06 11:22:08;;;;;;;;;;;19.40;99.90;;;;;;4919133;29;19962;-75
2022/09/06 11:24:42;;;;;;;;;;;19.40;99.90;;;;;;4919790;29;19965;-74
2022/09/06 11:27:14;;;;;;;;;;;19.50;99.90;;;;;;4920060;29;19982;-75
2022/09/06 11:29:44;;;;;;;;;;;19.50;99.90;;;;;;4901584;29;19935;-76
2022/09/06 11:32:25;;;;;;;;;;;19.50;99.90;;;;;;4915626;29;20021;-76
2022/09/06 11:34:53;;;;;;;;;;;19.60;99.90;;;;;;4912254;29;19927;-75
2022/09/06 11:37:24;;;;;;;;;;;19.60;99.90;;;;;;4911905;29;20440;-75
2022/09/06 11:40:03;;;;;;;;;;;19.60;99.90;;;;;;4914766;29;20385;-76
2022/09/06 11:42:41;;;;;;;;;;;19.70;99.90;;;;;;4918027;29;19977;-74
2022/09/06 11:45:20;;;;;;;;;;;19.80;99.90;;;;;;4915317;29;19931;-75
2022/09/06 11:47:48;;;;;;;;;;;19.80;99.90;;;;;;4896314;29;20409;-75
2022/09/06 11:50:23;;;;;;;;;;;19.90;99.90;;;;;;4902696;29;19985;-75
2022/09/06 11:53:11;;;;;;;;;;;19.90;99.90;;;;;;4914894;29;19941;-76
2022/09/06 11:55:42;;;;;;;;;;;20.00;99.90;;;;;;4904845;29;22116;-74
2022/09/06 11:58:22;;;;;;;;;;;20.00;99.90;;;;;;4914422;29;19934;-75
2022/09/06 12:01:04;;;;;;;;;;;20.00;99.90;;;;;;4919860;29;19927;-75
2022/09/06 12:03:49;;;;;;;;;;;20.00;99.90;;;;;;4911860;29;19970;-75
2022/09/06 12:06:17;;;;;;;;;;;20.00;99.90;;;;;;4901141;29;19931;-75
2022/09/06 12:08:48;;;;;;;;;;;20.10;99.90;;;;;;4914897;29;20033;-75
2022/09/06 12:11:33;;;;;;;;;;;20.10;99.90;;;;;;4913507;29;19941;-75
2022/09/06 12:14:05;;;;;;;;;;;20.20;99.90;;;;;;4913706;29;20017;-75
2022/09/06 12:16:55;;;;;;;;;;;20.20;99.90;;;;;;4915079;29;19934;-76
2022/09/06 12:19:47;;;;;;;;;;;20.20;99.90;;;;;;4909507;29;19927;-74
2022/09/06 12:22:34;;;;;;;;;;;20.20;99.90;;;;;;4903249;29;19985;-78
2022/09/06 12:25:02;;;;;;;;;;;20.30;99.90;;;;;;4913712;29;20305;-78
2022/09/06 12:27:29;;;;;;;;;;;20.30;99.90;;;;;;4914553;29;19934;-77
2022/09/06 12:29:59;;;;;;;;;;;20.30;99.90;;;;;;4913765;29;19931;-77
2022/09/06 12:32:27;;;;;;;;;;;20.40;99.90;;;;;;4914746;29;20026;-77
2022/09/06 12:34:55;;;;;;;;;;;20.40;99.90;;;;;;4898485;29;19936;-78
2022/09/06 12:37:32;;;;;;;;;;;20.40;99.90;;;;;;4920478;29;19998;-77
2022/09/06 12:39:59;;;;;;;;;;;20.40;99.90;;;;;;4907074;29;19935;-77
2022/09/06 12:42:26;;;;;;;;;;;20.50;99.90;;;;;;4911923;29;20535;-77
2022/09/06 12:44:54;;;;;;;;;;;20.50;99.90;;;;;;4917984;29;19999;-76
2022/09/06 12:47:24;;;;;;;;;;;20.50;99.90;;;;;;4921352;29;19942;-76
2022/09/06 12:50:06;;;;;;;;;;;20.50;99.90;;;;;;4916694;29;19995;-78
2022/09/06 12:52:33;;;;;;;;;;;20.60;99.90;;;;;;4921002;29;19926;-76
2022/09/06 12:55:00;;;;;;;;;;;20.60;99.90;;;;;;4920537;29;19935;-76
2022/09/06 12:57:26;;;;;;;;;;;20.70;99.90;;;;;;4916841;29;19934;-76
2022/09/06 12:59:54;;;;;;;;;;;20.70;99.90;;;;;;4911345;29;19954;-77
2022/09/06 13:02:34;;;;;;;;;;;20.70;99.90;;;;;;4917102;29;20005;-76
2022/09/06 13:05:05;;;;;;;;;;;20.70;99.90;;;;;;4915360;29;19938;-78
2022/09/06 13:07:34;;;;;;;;;;;20.80;99.90;;;;;;4913815;29;20364;-78
2022/09/06 13:10:01;;;;;;;;;;;20.90;99.90;;;;;;4924611;29;20354;-78
2022/09/06 13:12:32;;;;;;;;;;;20.90;99.90;;;;;;4913018;29;20702;-78
2022/09/06 13:15:03;;;;;;;;;;;20.90;99.90;;;;;;4921264;29;20011;-78
2022/09/06 13:17:31;;;;;;;;;;;20.90;99.90;;;;;;4912075;29;19966;-79
2022/09/06 13:19:58;;;;;;;;;;;20.90;99.90;;;;;;4896732;29;19927;-75
2022/09/06 13:22:39;;;;;;;;;;;20.90;99.90;;;;;;4912481;29;19927;-78
2022/09/06 13:25:13;;;;;;;;;;;21.00;99.90;;;;;;4917259;29;20049;-77
2022/09/06 13:27:44;;;;;;;;;;;21.00;99.90;;;;;;4912563;29;19930;-76
2022/09/06 13:30:29;;;;;;;;;;;21.00;99.90;;;;;;4920801;29;19933;-76
2022/09/06 13:32:57;;;;;;;;;;;21.00;99.90;;;;;;4922639;29;20026;-76
2022/09/06 13:35:27;;;;;;;;;;;21.10;99.90;;;;;;4901372;29;20013;-77
2022/09/06 13:38:09;;;;;;;;;;;21.10;99.90;;;;;;4918308;29;20012;-76
2022/09/06 13:40:36;;;;;;;;;;;21.10;99.90;;;;;;4915922;29;20013;-76
2022/09/06 13:43:03;;;;;;;;;;;21.10;99.90;;;;;;4908352;29;19962;-78
2022/09/06 13:45:32;;;;;;;;;;;21.20;99.90;;;;;;4918381;29;19943;-77
2022/09/06 13:48:00;;;;;;;;;;;21.20;99.90;;;;;;4919370;29;19986;-76
2022/09/06 13:50:27;;;;;;;;;;;21.20;99.90;;;;;;4919602;29;19957;-78
2022/09/06 13:52:54;;;;;;;;;;;21.30;99.90;;;;;;4932068;28;19982;-77
2022/09/06 13:55:23;;;;;;;;;;;21.20;99.90;;;;;;4922264;29;19927;-77
2022/09/06 13:57:51;;;;;;;;;;;21.30;99.90;;;;;;4919062;28;20550;-77
2022/09/06 14:00:18;;;;;;;;;;;21.30;99.90;;;;;;4904807;29;19990;-77
2022/09/06 14:02:46;;;;;;;;;;;21.30;99.90;;;;;;4922230;29;19930;-75
2022/09/06 14:05:15;;;;;;;;;;;21.40;99.90;;;;;;4920952;29;20423;-78
2022/09/06 14:07:42;;;;;;;;;;;21.40;99.90;;;;;;4918063;29;20386;-77
2022/09/06 14:10:10;;;;;;;;;;;21.40;99.90;;;;;;4917026;29;20026;-75
2022/09/06 14:12:37;;;;;;;;;;;21.40;99.90;;;;;;4920731;29;19933;-75
2022/09/06 14:15:05;;;;;;;;;;;21.50;99.90;;;;;;4921175;29;19926;-76
2022/09/06 14:17:32;;;;;;;;;;;21.50;99.90;;;;;;4919945;29;20428;-76
2022/09/06 14:20:00;;;;;;;;;;;21.50;99.90;;;;;;4917003;29;19927;-75
2022/09/06 14:22:30;;;;;;;;;;;21.50;99.90;;;;;;4919394;29;19931;-77
2022/09/06 14:24:57;;;;;;;;;;;21.60;99.90;;;;;;4904140;29;20299;-75
2022/09/06 14:27:24;;;;;;;;;;;21.60;99.90;;;;;;4903153;29;20010;-75
2022/09/06 14:29:50;;;;;;;;;;;21.60;99.90;;;;;;4921625;29;19970;-76
2022/09/06 14:32:18;;;;;;;;;;;21.60;99.90;;;;;;4918645;29;19927;-78
2022/09/06 14:34:45;;;;;;;;;;;21.70;99.90;;;;;;4916286;29;19978;-76